createdAt,value
2018-07-12T00:02:01.601Z,19.00
2018-07-12T00:04:28.928Z,18.90
2018-07-12T00:06:56.565Z,18.90
2018-07-12T00:09:23.924Z,18.90
2018-07-12T00:11:51.251Z,18.90
2018-07-12T00:14:18.613Z,18.90
2018-07-12T00:16:46.221Z,18.90
2018-07-12T00:19:13.860Z,18.90
2018-07-12T00:21:41.204Z,18.90
2018-07-12T00:24:08.812Z,18.80
2018-07-12T00:26:36.164Z,18.80
2018-07-12T00:29:03.500Z,18.80
2018-07-12T00:31:30.820Z,18.80
2018-07-12T00:33:58.147Z,18.70
2018-07-12T00:36:25.485Z,18.60
2018-07-12T00:38:52.815Z,18.60
2018-07-12T00:41:20.133Z,18.70
2018-07-12T00:43:47.502Z,18.60
2018-07-12T00:46:14.844Z,18.40
2018-07-12T00:48:42.200Z,18.40
2018-07-12T00:51:09.660Z,18.30
2018-07-12T00:53:36.983Z,18.30
2018-07-12T00:56:04.335Z,18.40
2018-07-12T00:58:31.684Z,18.50
2018-07-12T01:00:59.016Z,18.50
2018-07-12T01:03:26.353Z,18.40
2018-07-12T01:05:53.691Z,18.40
2018-07-12T01:08:21.029Z,18.40
2018-07-12T01:10:48.695Z,18.30
2018-07-12T01:13:15.992Z,18.30
2018-07-12T01:15:43.302Z,18.30
2018-07-12T01:18:10.660Z,18.40
2018-07-12T01:20:37.993Z,18.50
2018-07-12T01:23:05.297Z,18.40
2018-07-12T01:25:32.576Z,18.20
2018-07-12T01:27:59.904Z,18.30
2018-07-12T01:30:27.209Z,18.40
2018-07-12T01:32:54.760Z,18.30
2018-07-12T01:35:22.132Z,18.50
2018-07-12T01:37:49.410Z,18.40
2018-07-12T01:40:16.755Z,18.40
2018-07-12T01:42:44.076Z,18.40
2018-07-12T01:45:11.385Z,18.50
2018-07-12T01:47:38.706Z,18.50
2018-07-12T01:50:06.028Z,18.50
2018-07-12T01:52:33.339Z,18.40
2018-07-12T01:55:00.616Z,18.50
2018-07-12T01:57:27.926Z,18.50
2018-07-12T01:59:55.220Z,18.40
2018-07-12T02:02:22.566Z,18.40
2018-07-12T02:04:50.279Z,18.40
2018-07-12T02:07:17.624Z,18.40
2018-07-12T02:09:44.976Z,18.30
2018-07-12T02:12:12.271Z,18.20
2018-07-12T02:14:39.583Z,18.20
2018-07-12T02:17:07.234Z,18.30
2018-07-12T02:19:34.590Z,18.30
2018-07-12T02:22:01.857Z,18.40
2018-07-12T02:24:29.198Z,18.30
2018-07-12T02:26:56.500Z,18.20
2018-07-12T02:29:24.019Z,18.20
2018-07-12T02:31:51.333Z,18.20
2018-07-12T02:34:19.033Z,18.20
2018-07-12T02:36:46.702Z,18.20
2018-07-12T02:39:14.060Z,18.00
2018-07-12T02:41:41.741Z,18.10
2018-07-12T02:44:09.421Z,18.20
2018-07-12T02:46:37.167Z,18.20
2018-07-12T02:49:04.853Z,18.10
2018-07-12T02:51:32.442Z,18.00
2018-07-12T02:54:00.559Z,17.90
2018-07-12T02:56:27.860Z,18.00
2018-07-12T02:58:55.169Z,18.20
2018-07-12T03:01:22.496Z,18.20
2018-07-12T03:03:49.800Z,18.20
2018-07-12T03:06:17.140Z,18.10
2018-07-12T03:08:44.473Z,18.10
2018-07-12T03:11:11.804Z,18.00
2018-07-12T03:13:39.339Z,18.00
2018-07-12T03:16:06.630Z,18.00
2018-07-12T03:18:33.966Z,18.00
2018-07-12T03:21:01.248Z,18.00
2018-07-12T03:23:28.551Z,17.90
2018-07-12T03:25:56.109Z,17.90
2018-07-12T03:28:23.444Z,17.90
2018-07-12T03:30:51.029Z,17.80
2018-07-12T03:33:18.801Z,17.70
2018-07-12T03:35:46.525Z,17.40
2018-07-12T03:38:13.955Z,17.50
2018-07-12T03:40:41.307Z,17.40
2018-07-12T03:43:08.640Z,17.50
2018-07-12T03:45:36.012Z,17.50
2018-07-12T03:48:03.347Z,17.50
2018-07-12T03:50:30.691Z,17.40
2018-07-12T03:52:58.018Z,17.50
2018-07-12T03:55:25.315Z,17.40
2018-07-12T03:57:52.591Z,17.50
2018-07-12T04:00:19.925Z,17.50
2018-07-12T04:02:47.274Z,17.50
2018-07-12T04:05:14.912Z,17.50
2018-07-12T04:07:42.497Z,17.40
2018-07-12T04:10:09.801Z,17.40
2018-07-12T04:12:37.104Z,17.20
2018-07-12T04:15:04.476Z,17.30
2018-07-12T04:17:32.843Z,17.30
2018-07-12T04:20:01.452Z,17.40
2018-07-12T04:22:30.929Z,17.50
2018-07-12T04:24:58.263Z,17.50
2018-07-12T04:27:25.841Z,17.50
2018-07-12T04:29:54.528Z,17.30
2018-07-12T04:32:21.814Z,17.50
2018-07-12T04:34:49.818Z,17.30
2018-07-12T04:37:17.387Z,17.20
2018-07-12T04:39:44.889Z,17.10
2018-07-12T04:42:12.492Z,17.10
2018-07-12T04:44:40.142Z,17.00
2018-07-12T04:47:07.504Z,17.20
2018-07-12T04:49:34.996Z,17.10
2018-07-12T04:52:02.305Z,17.20
2018-07-12T04:54:29.704Z,17.20
2018-07-12T04:56:57.049Z,17.30
2018-07-12T04:59:24.892Z,17.40
2018-07-12T05:01:52.187Z,17.30
2018-07-12T05:04:19.488Z,17.30
2018-07-12T05:06:46.860Z,17.40
2018-07-12T05:09:14.558Z,17.40
2018-07-12T05:14:09.411Z,17.40
2018-07-12T05:16:36.703Z,17.60
2018-07-12T05:19:04.028Z,17.40
2018-07-12T05:21:32.058Z,17.40
2018-07-12T05:23:59.360Z,17.40
2018-07-12T05:26:26.655Z,17.40
2018-07-12T05:28:53.959Z,17.60
2018-07-12T05:31:21.253Z,17.70
2018-07-12T05:33:48.516Z,17.60
2018-07-12T05:36:22.777Z,17.60
2018-07-12T05:38:51.264Z,17.60
2018-07-12T05:41:19.620Z,17.80
2018-07-12T05:43:48.045Z,17.90
2018-07-12T05:46:16.791Z,18.00
2018-07-12T05:48:45.423Z,18.10
2018-07-12T05:51:14.163Z,18.20
2018-07-12T05:53:42.564Z,18.30
2018-07-12T05:56:10.975Z,18.40
2018-07-12T05:58:39.365Z,18.60
2018-07-12T06:01:17.956Z,18.60
2018-07-12T06:03:46.277Z,18.60
2018-07-12T06:08:42.774Z,18.40
2018-07-12T06:11:11.212Z,18.50
2018-07-12T06:13:39.930Z,18.40
2018-07-12T06:16:08.328Z,18.60
2018-07-12T06:18:36.999Z,18.60
2018-07-12T06:21:05.426Z,18.70
2018-07-12T06:23:33.902Z,18.60
2018-07-12T06:26:02.354Z,18.60
2018-07-12T06:28:31.419Z,18.50
2018-07-12T06:30:59.888Z,18.50
2018-07-12T06:33:28.772Z,18.50
2018-07-12T06:35:57.468Z,18.60
2018-07-12T06:38:26.781Z,18.50
2018-07-12T06:40:55.238Z,18.60
2018-07-12T06:43:23.653Z,18.70
2018-07-12T06:45:52.409Z,19.00
2018-07-12T06:48:21.111Z,19.20
2018-07-12T06:50:49.533Z,19.20
2018-07-12T06:53:17.892Z,19.20
2018-07-12T06:55:46.303Z,19.30
2018-07-12T06:58:14.716Z,19.40
2018-07-12T07:00:43.503Z,19.40
2018-07-12T07:03:12.154Z,19.80
2018-07-12T07:05:40.576Z,20.10
2018-07-12T07:08:08.979Z,20.30
2018-07-12T07:10:37.429Z,20.00
2018-07-12T07:13:06.078Z,20.20
2018-07-12T07:15:34.493Z,20.10
2018-07-12T07:18:02.921Z,20.00
2018-07-12T07:20:31.586Z,20.00
2018-07-12T07:23:00.032Z,20.00
2018-07-12T07:25:28.816Z,20.00
2018-07-12T07:27:57.206Z,20.20
2018-07-12T07:30:25.589Z,20.30
2018-07-12T07:32:54.381Z,20.20
2018-07-12T07:35:22.837Z,20.40
2018-07-12T07:37:51.564Z,20.40
2018-07-12T07:40:19.952Z,20.20
2018-07-12T07:42:48.403Z,20.30
2018-07-12T07:45:16.852Z,20.30
2018-07-12T07:47:45.288Z,20.60
2018-07-12T07:50:13.739Z,20.70
2018-07-12T07:52:42.172Z,20.60
2018-07-12T07:55:10.565Z,20.50
2018-07-12T07:57:39.043Z,20.70
2018-07-12T08:00:07.479Z,20.70
2018-07-12T08:02:35.952Z,20.90
2018-07-12T08:05:04.438Z,20.70
2018-07-12T08:07:32.914Z,20.80
2018-07-12T08:10:01.344Z,21.00
2018-07-12T08:12:29.730Z,21.00
2018-07-12T08:14:58.239Z,21.10
2018-07-12T08:19:54.801Z,21.30
2018-07-12T08:24:51.316Z,21.40
2018-07-12T08:27:20.038Z,21.40
2018-07-12T08:32:17.442Z,21.50
2018-07-12T08:34:47.017Z,21.50
2018-07-12T08:37:15.433Z,21.50
2018-07-12T08:39:43.804Z,21.40
2018-07-12T08:42:12.193Z,21.60
2018-07-12T08:44:40.651Z,22.10
2018-07-12T08:47:08.943Z,22.30
2018-07-12T08:49:37.381Z,22.20
2018-07-12T08:52:05.768Z,22.60
2018-07-12T08:54:34.336Z,22.70
2018-07-12T08:57:02.934Z,22.80
2018-07-12T08:59:31.376Z,23.00
2018-07-12T09:02:00.356Z,23.10
2018-07-12T09:04:28.777Z,23.30
2018-07-12T09:06:57.212Z,23.10
2018-07-12T09:09:26.007Z,23.20
2018-07-12T09:11:54.892Z,23.30
2018-07-12T09:14:24.799Z,23.80
2018-07-12T09:16:54.930Z,23.70
2018-07-12T09:19:23.348Z,23.70
2018-07-12T09:24:20.644Z,24.10
2018-07-12T09:26:49.671Z,24.00
2018-07-12T09:29:18.509Z,23.80
2018-07-12T09:31:46.938Z,23.80
2018-07-12T09:34:15.590Z,23.90
2018-07-12T09:36:44.009Z,24.00
2018-07-12T09:39:12.640Z,23.90
2018-07-12T09:41:41.341Z,24.00
2018-07-12T09:44:09.757Z,24.50
2018-07-12T09:46:38.147Z,24.30
2018-07-12T09:49:06.592Z,24.20
2018-07-12T09:51:35.264Z,24.30
2018-07-12T09:54:03.948Z,24.40
2018-07-12T09:56:43.789Z,24.30
2018-07-12T09:59:12.045Z,24.50
2018-07-12T10:01:45.886Z,24.60
2018-07-12T10:04:14.299Z,24.80
2018-07-12T10:06:48.120Z,24.70
2018-07-12T10:09:21.755Z,24.80
2018-07-12T10:11:55.642Z,25.00
2018-07-12T10:14:29.569Z,24.70
2018-07-12T10:17:03.439Z,24.90
2018-07-12T10:19:32.102Z,24.70
2018-07-12T10:22:00.555Z,24.60
2018-07-12T10:24:29.065Z,25.00
2018-07-12T10:26:57.505Z,25.00
2018-07-12T10:29:25.912Z,25.20
2018-07-12T10:31:54.248Z,25.20
2018-07-12T10:34:22.593Z,25.40
2018-07-12T10:36:50.984Z,25.70
2018-07-12T10:39:19.574Z,25.80
2018-07-12T10:41:48.073Z,25.50
2018-07-12T10:44:16.501Z,25.10
2018-07-12T10:46:44.881Z,24.90
2018-07-12T10:49:13.385Z,25.20
2018-07-12T10:51:41.821Z,25.50
2018-07-12T10:54:10.533Z,25.80
2018-07-12T10:56:39.031Z,26.00
2018-07-12T10:59:07.569Z,26.40
2018-07-12T11:01:35.948Z,26.10
2018-07-12T11:04:04.372Z,26.20
2018-07-12T11:06:33.048Z,26.30
2018-07-12T11:09:01.703Z,26.20
2018-07-12T11:11:30.189Z,26.30
2018-07-12T11:13:58.671Z,26.20
2018-07-12T11:16:27.436Z,26.40
2018-07-12T11:18:55.927Z,26.50
2018-07-12T11:21:24.823Z,26.70
2018-07-12T11:23:53.252Z,26.90
2018-07-12T11:26:21.696Z,26.30
2018-07-12T11:28:50.126Z,26.60
2018-07-12T11:31:18.582Z,27.10
2018-07-12T11:33:48.111Z,27.40
2018-07-12T11:36:16.533Z,27.40
2018-07-12T11:38:45.389Z,26.80
2018-07-12T11:41:13.921Z,27.20
2018-07-12T11:43:42.536Z,27.50
2018-07-12T11:47:40.377Z,27.80
2018-07-12T11:50:08.856Z,27.80
2018-07-12T11:52:37.446Z,27.30
2018-07-12T11:55:05.899Z,27.40
2018-07-12T11:57:34.333Z,27.90
2018-07-12T12:00:02.677Z,27.70
2018-07-12T12:02:32.211Z,28.00
2018-07-12T12:05:00.932Z,27.90
2018-07-12T12:07:29.385Z,27.90
2018-07-12T12:09:57.768Z,27.70
2018-07-12T12:12:26.097Z,27.30
2018-07-12T12:14:54.478Z,27.00
2018-07-12T12:17:22.851Z,27.00
2018-07-12T12:19:51.332Z,26.60
2018-07-12T12:22:19.834Z,27.10
2018-07-12T12:24:48.410Z,27.90
2018-07-12T12:27:16.846Z,27.90
2018-07-12T12:29:45.259Z,27.50
2018-07-12T12:32:13.635Z,27.40
2018-07-12T12:34:42.355Z,27.80
2018-07-12T12:37:10.733Z,28.30
2018-07-12T12:39:39.129Z,27.10
2018-07-12T12:42:07.611Z,27.40
2018-07-12T12:44:36.026Z,27.70
2018-07-12T12:47:04.745Z,27.70
2018-07-12T12:49:33.526Z,27.90
2018-07-12T12:52:02.084Z,27.20
2018-07-12T12:54:30.757Z,27.20
2018-07-12T12:56:59.095Z,26.80
2018-07-12T12:59:27.779Z,27.20
2018-07-12T13:01:56.551Z,27.70
2018-07-12T13:04:25.085Z,27.20
2018-07-12T13:09:21.656Z,27.50
2018-07-12T13:11:50.038Z,28.00
2018-07-12T13:16:46.525Z,27.80
2018-07-12T13:19:15.020Z,27.70
2018-07-12T13:21:43.717Z,27.60
2018-07-12T13:24:12.172Z,27.30
2018-07-12T13:26:40.660Z,27.00
2018-07-12T13:29:09.104Z,27.10
2018-07-12T13:31:37.538Z,27.60
2018-07-12T13:34:06.039Z,28.00
2018-07-12T13:36:34.431Z,28.20
2018-07-12T13:39:02.863Z,28.30
2018-07-12T13:41:31.304Z,27.70
2018-07-12T13:44:11.102Z,27.40
2018-07-12T13:46:39.678Z,27.50
2018-07-12T13:49:08.159Z,27.70
2018-07-12T13:51:37.167Z,27.30
2018-07-12T13:54:06.008Z,27.70
2018-07-12T13:56:34.435Z,27.70
2018-07-12T14:01:31.329Z,28.10
2018-07-12T14:03:59.893Z,28.00
2018-07-12T14:06:28.842Z,27.80
2018-07-12T14:08:57.303Z,28.10
2018-07-12T14:11:25.683Z,28.20
2018-07-12T14:13:54.484Z,27.90
2018-07-12T14:16:23.351Z,27.90
2018-07-12T14:18:52.173Z,27.90
2018-07-12T14:21:20.540Z,28.00
2018-07-12T14:23:49.696Z,28.00
2018-07-12T14:28:46.333Z,28.20
2018-07-12T14:31:16.251Z,28.20
2018-07-12T14:33:45.568Z,27.40
2018-07-12T14:36:13.988Z,26.80
2018-07-12T14:38:42.514Z,26.90
2018-07-12T14:41:10.891Z,26.60
2018-07-12T14:43:39.564Z,26.40
2018-07-12T14:46:08.181Z,26.80
2018-07-12T14:48:37.664Z,27.00
2018-07-12T14:51:06.054Z,27.00
2018-07-12T14:53:34.465Z,27.30
2018-07-12T14:56:02.972Z,27.30
2018-07-12T14:58:31.468Z,27.20
2018-07-12T15:05:56.104Z,27.60
2018-07-12T15:08:24.472Z,27.30
2018-07-12T15:10:52.922Z,27.20
2018-07-12T15:13:21.394Z,27.30
2018-07-12T15:15:50.256Z,27.20
2018-07-12T15:18:18.941Z,27.30
2018-07-12T15:20:47.369Z,27.20
2018-07-12T15:23:15.929Z,27.10
2018-07-12T15:25:44.369Z,27.00
2018-07-12T15:28:12.790Z,27.00
2018-07-12T15:30:41.191Z,27.10
2018-07-12T15:33:09.676Z,27.10
2018-07-12T15:35:38.070Z,27.00
2018-07-12T15:38:06.599Z,26.70
2018-07-12T15:40:35.113Z,26.70
2018-07-12T15:45:31.721Z,26.70
2018-07-12T15:48:00.152Z,26.70
2018-07-12T15:52:56.757Z,26.60
2018-07-12T15:55:25.227Z,26.50
2018-07-12T15:57:53.547Z,26.50
2018-07-12T16:00:22.004Z,26.60
2018-07-12T16:02:50.416Z,26.70
2018-07-12T16:05:18.774Z,26.70
2018-07-12T16:07:47.229Z,26.60
2018-07-12T16:10:15.542Z,26.60
2018-07-12T16:12:43.865Z,26.40
2018-07-12T16:15:12.247Z,26.60
2018-07-12T16:17:40.668Z,26.30
2018-07-12T16:20:09.077Z,26.50
2018-07-12T16:22:37.513Z,26.60
2018-07-12T16:25:06.338Z,26.60
2018-07-12T16:27:34.731Z,26.40
2018-07-12T16:30:03.120Z,26.50
2018-07-12T16:32:31.473Z,26.40
2018-07-12T16:34:59.829Z,26.40
2018-07-12T16:37:28.199Z,26.20
2018-07-12T16:39:56.568Z,26.00
2018-07-12T16:42:24.908Z,26.00
2018-07-12T16:44:53.353Z,26.00
2018-07-12T16:47:21.721Z,26.00
2018-07-12T16:49:50.105Z,26.00
2018-07-12T16:52:18.451Z,26.10
2018-07-12T16:54:47.413Z,25.90
2018-07-12T16:57:15.788Z,25.80
2018-07-12T16:59:44.211Z,25.80
2018-07-12T17:02:12.609Z,25.70
2018-07-12T17:04:40.980Z,25.60
2018-07-12T17:07:09.436Z,25.60
2018-07-12T17:09:37.766Z,25.70
2018-07-12T17:12:06.136Z,25.70
2018-07-12T17:14:34.543Z,25.60
2018-07-12T17:17:02.855Z,25.60
2018-07-12T17:19:31.245Z,25.40
2018-07-12T17:21:59.553Z,25.50
2018-07-12T17:24:27.910Z,25.40
2018-07-12T17:26:56.273Z,25.40
2018-07-12T17:29:24.621Z,25.40
2018-07-12T17:31:52.981Z,25.30
2018-07-12T17:34:21.310Z,25.20
2018-07-12T17:36:49.751Z,25.30
2018-07-12T17:39:18.112Z,25.20
2018-07-12T17:44:14.553Z,25.30
2018-07-12T17:46:42.867Z,25.30
2018-07-12T17:49:11.212Z,25.20
2018-07-12T17:51:39.537Z,25.20
2018-07-12T17:54:07.866Z,25.00
2018-07-12T17:56:36.213Z,24.70
2018-07-12T17:59:04.586Z,24.70
2018-07-12T18:01:32.984Z,24.40
2018-07-12T18:04:01.476Z,24.50
2018-07-12T18:06:29.824Z,24.30
2018-07-12T18:08:58.240Z,24.40
2018-07-12T18:11:26.587Z,24.40
2018-07-12T18:13:54.949Z,24.30
2018-07-12T18:16:23.296Z,24.30
2018-07-12T18:18:51.647Z,24.30
2018-07-12T18:21:20.008Z,24.20
2018-07-12T18:23:48.345Z,24.20
2018-07-12T18:26:16.977Z,24.10
2018-07-12T18:31:13.816Z,24.00
2018-07-12T18:33:42.194Z,24.00
2018-07-12T18:36:10.626Z,23.80
2018-07-12T18:38:40.566Z,23.70
2018-07-12T18:41:08.920Z,23.60
2018-07-12T18:43:37.296Z,23.50
2018-07-12T18:46:06.011Z,23.50
2018-07-12T18:48:34.359Z,23.60
2018-07-12T18:51:02.737Z,23.60
2018-07-12T18:53:31.144Z,23.50
2018-07-12T18:55:59.742Z,23.50
2018-07-12T18:58:28.046Z,23.30
2018-07-12T19:00:56.464Z,23.40
2018-07-12T19:03:24.857Z,23.20
2018-07-12T19:05:53.194Z,23.10
2018-07-12T19:08:21.647Z,23.10
2018-07-12T19:10:50.082Z,23.00
2018-07-12T19:13:18.487Z,22.80
2018-07-12T19:15:46.875Z,22.80
2018-07-12T19:18:15.317Z,22.90
2018-07-12T19:20:43.742Z,22.90
2018-07-12T19:23:12.151Z,22.80
2018-07-12T19:25:40.608Z,22.70
2018-07-12T19:28:08.930Z,22.60
2018-07-12T19:30:37.341Z,22.40
2018-07-12T19:33:05.821Z,22.10
2018-07-12T19:35:34.218Z,22.30
2018-07-12T19:38:02.889Z,22.10
2018-07-12T19:40:31.279Z,22.20
2018-07-12T19:42:59.765Z,22.10
2018-07-12T19:45:28.139Z,22.20
2018-07-12T19:47:56.461Z,22.10
2018-07-12T19:50:24.890Z,22.00
2018-07-12T19:52:53.234Z,22.00
2018-07-12T19:55:21.619Z,22.00
2018-07-12T19:57:49.932Z,22.00
2018-07-12T20:00:18.344Z,22.00
2018-07-12T20:02:46.739Z,21.80
2018-07-12T20:05:15.094Z,21.50
2018-07-12T20:07:43.514Z,21.70
2018-07-12T20:10:11.878Z,21.50
2018-07-12T20:12:40.281Z,21.50
2018-07-12T20:15:08.732Z,21.60
2018-07-12T20:24:23.495Z,21.30
2018-07-12T20:26:52.256Z,20.90
2018-07-12T20:29:20.571Z,21.00
2018-07-12T20:31:48.954Z,20.80
2018-07-12T20:34:17.313Z,20.90
2018-07-12T20:36:45.633Z,20.80
2018-07-12T20:39:14.008Z,20.70
2018-07-12T20:41:42.372Z,20.90
2018-07-12T20:44:10.765Z,20.80
2018-07-12T20:46:39.101Z,20.70
2018-07-12T20:49:07.516Z,20.70
2018-07-12T20:51:35.883Z,20.80
2018-07-12T20:54:04.278Z,20.80
2018-07-12T20:56:32.642Z,20.60
2018-07-12T20:59:00.960Z,20.40
2018-07-12T21:01:29.323Z,20.50
2018-07-12T21:05:26.894Z,20.40
2018-07-12T21:07:55.236Z,20.60
2018-07-12T21:10:23.584Z,20.50
2018-07-12T21:12:51.961Z,20.30
2018-07-12T21:15:20.345Z,20.20
2018-07-12T21:17:48.729Z,20.30
2018-07-12T21:20:17.093Z,20.10
2018-07-12T21:22:45.600Z,20.20
2018-07-12T21:25:13.948Z,20.20
2018-07-12T21:27:42.325Z,20.20
2018-07-12T21:30:11.768Z,20.30
2018-07-12T21:35:09.072Z,20.30
2018-07-12T21:37:37.445Z,20.30
2018-07-12T21:40:05.913Z,20.30
2018-07-12T21:42:34.217Z,20.30
2018-07-12T21:45:02.616Z,20.40
2018-07-12T21:47:30.942Z,20.40
2018-07-12T21:49:59.523Z,20.40
2018-07-12T21:52:27.841Z,20.40
2018-07-12T21:54:56.189Z,20.30
2018-07-12T21:57:24.536Z,20.20
2018-07-12T21:59:52.949Z,20.00
2018-07-12T22:02:21.373Z,20.00
2018-07-12T22:04:49.724Z,20.10
2018-07-12T22:08:30.244Z,20.20
2018-07-12T22:13:31.746Z,19.90
2018-07-12T22:16:00.328Z,20.00
2018-07-12T22:20:56.817Z,20.00
2018-07-12T22:23:25.203Z,19.90
2018-07-12T22:25:53.516Z,19.80
2018-07-12T22:28:21.940Z,20.00
2018-07-12T22:30:50.346Z,20.10
2018-07-12T22:33:18.908Z,19.90
2018-07-12T22:35:47.271Z,19.90
2018-07-12T22:38:15.651Z,20.00
2018-07-12T22:40:43.977Z,19.90
2018-07-12T22:43:12.266Z,20.00
2018-07-12T22:45:40.622Z,20.00
2018-07-12T22:48:09.092Z,19.90
2018-07-12T22:50:37.356Z,19.90
2018-07-12T22:53:05.772Z,20.00
2018-07-12T22:55:34.137Z,19.80
2018-07-12T22:58:02.486Z,19.80
2018-07-12T23:00:30.908Z,19.90
2018-07-12T23:02:59.387Z,19.70
2018-07-12T23:07:56.126Z,19.70
2018-07-12T23:10:24.525Z,19.60
2018-07-12T23:12:52.859Z,19.50
2018-07-12T23:15:21.317Z,19.40
2018-07-12T23:20:17.734Z,19.60
2018-07-12T23:22:46.043Z,19.60
2018-07-12T23:25:14.366Z,19.50
2018-07-12T23:27:42.740Z,19.60
2018-07-12T23:30:11.131Z,19.50
2018-07-12T23:32:39.493Z,19.40
2018-07-12T23:35:07.867Z,19.50
2018-07-12T23:37:36.178Z,19.50
2018-07-12T23:40:04.560Z,19.20
2018-07-12T23:42:32.981Z,19.30
2018-07-12T23:45:01.358Z,19.20
2018-07-12T23:47:30.001Z,19.20
2018-07-12T23:49:58.377Z,19.20
2018-07-12T23:52:26.705Z,19.20
2018-07-12T23:54:55.102Z,19.10
2018-07-12T23:57:23.474Z,19.20
2018-07-12T23:59:51.861Z,19.20
